Time;durP1;ratioP1;P1;durP2;ratioP2;P2;SDS_P1;SDS_P2;PMS_P1;PMS_P2;Temp;Humidity;BMP_temperature;BMP_pressure;BME280_temperature;BME280_humidity;BME280_pressure;Samples;Min_cycle;Max_cycle;Signal;HPM_P1;HPM_P2
2022/06/07 00:00:05;;;;;;;0.70;0.70;;;;;;;19.07;53.08;97200.84;4952209;28;20712;-77
2022/06/07 00:02:30;;;;;;;0.73;0.50;;;;;;;19.08;53.47;97201.63;4966492;28;20032;-77
2022/06/07 00:04:56;;;;;;;1.33;0.60;;;;;;;19.06;53.52;97190.59;4937883;28;20021;-77
2022/06/07 00:07:24;;;;;;;1.08;0.57;;;;;;;19.01;53.51;97193.34;4936571;28;20024;-77
2022/06/07 00:09:49;;;;;;;0.60;0.57;;;;;;;19.02;53.44;97193.03;4937117;28;20021;-77
2022/06/07 00:12:17;;;;;;;1.13;0.52;;;;;;;19.05;53.33;97195.06;4952065;28;20040;-77
2022/06/07 00:14:43;;;;;;;1.33;0.60;;;;;;;19.04;53.32;97190.13;4951460;28;20180;-77
2022/06/07 00:17:09;;;;;;;1.00;0.60;;;;;;;19.04;53.56;97190.13;4968585;28;20028;-77
2022/06/07 00:19:34;;;;;;;1.40;0.43;;;;;;;19.02;53.28;97192.25;4955379;28;20021;-77
2022/06/07 00:21:59;;;;;;;1.48;0.90;;;;;;;19.02;54.15;97194.88;4953017;28;20096;-77
2022/06/07 00:24:25;;;;;;;1.13;0.50;;;;;;;19.00;54.03;97192.53;4975002;28;20024;-77
2022/06/07 00:26:50;;;;;;;1.00;0.50;;;;;;;18.98;54.05;97196.56;4972398;28;20951;-77
2022/06/07 00:29:16;;;;;;;0.90;0.60;;;;;;;18.96;54.27;97190.81;4971605;28;20025;-77
2022/06/07 00:31:42;;;;;;;1.45;0.63;;;;;;;18.94;54.17;97195.63;4972140;28;20901;-77
2022/06/07 00:34:09;;;;;;;1.83;0.70;;;;;;;18.93;54.32;97197.44;4970317;28;20851;-77
2022/06/07 00:36:35;;;;;;;1.38;0.45;;;;;;;18.89;54.67;97189.34;4940355;28;20020;-77
2022/06/07 00:39:00;;;;;;;1.00;0.70;;;;;;;18.85;54.12;97192.88;4955966;28;20097;-77
2022/06/07 00:41:26;;;;;;;1.15;0.60;;;;;;;18.82;54.47;97189.00;4939850;28;20056;-77
2022/06/07 00:44:25;;;;;;;0.52;0.52;;;;;;;18.64;54.62;97188.00;4970755;28;20110;-77
2022/06/07 00:47:11;;;;;;;0.93;0.60;;;;;;;18.66;54.67;97187.72;4970729;28;20021;-77
2022/06/07 00:49:48;;;;;;;1.45;0.70;;;;;;;18.70;54.71;97191.34;4954693;28;20021;-77
2022/06/07 00:52:16;;;;;;;1.05;0.50;;;;;;;18.79;54.25;97183.50;4955658;28;20025;-77
2022/06/07 00:54:41;;;;;;;1.30;0.70;;;;;;;18.79;54.44;97186.91;4955718;28;20025;-77
2022/06/07 00:57:07;;;;;;;1.20;0.60;;;;;;;18.80;54.54;97182.41;4970901;28;20304;-77
2022/06/07 00:59:32;;;;;;;0.90;0.40;;;;;;;18.79;54.87;97188.78;4949998;28;20149;-77
2022/06/07 01:01:58;;;;;;;0.88;0.60;;;;;;;18.76;55.01;97179.59;4971506;28;20028;-77
2022/06/07 01:04:24;;;;;;;0.55;0.40;;;;;;;18.77;54.92;97183.81;4954357;28;20029;-77
2022/06/07 01:12:23;;;;;;;0.88;0.70;;;;;;;18.74;54.96;97175.69;4972084;28;20063;-77
2022/06/07 01:14:48;;;;;;;0.93;0.65;;;;;;;18.72;55.05;97178.63;4971679;28;20842;-77
2022/06/07 01:17:13;;;;;;;1.58;0.60;;;;;;;18.68;54.86;97175.03;4972057;28;20017;-77
2022/06/07 01:19:39;;;;;;;1.15;0.57;;;;;;;18.69;54.96;97168.66;4972924;28;20039;-77
2022/06/07 01:22:04;;;;;;;1.05;0.60;;;;;;;18.69;54.85;97173.94;4938377;28;20017;-77
2022/06/07 01:24:30;;;;;;;2.75;0.73;;;;;;;18.69;54.94;97169.44;4955281;28;20122;-77
2022/06/07 01:26:55;;;;;;;1.42;0.63;;;;;;;18.72;54.95;97174.13;4954176;28;20032;-77
2022/06/07 01:29:21;;;;;;;0.80;0.70;;;;;;;18.71;55.13;97171.78;4971204;28;20090;-77
2022/06/07 01:31:47;;;;;;;0.80;0.60;;;;;;;18.72;55.29;97173.34;4953320;28;20658;-77
2022/06/07 01:34:12;;;;;;;1.50;0.73;;;;;;;18.70;55.51;97164.97;4969318;28;20044;-77
2022/06/07 01:36:38;;;;;;;1.90;0.70;;;;;;;18.72;55.31;97162.81;4971184;28;20771;-77
2022/06/07 01:41:54;;;;;;;1.00;0.60;;;;;;;18.72;55.58;97165.44;4967389;28;20127;-77
2022/06/07 01:44:24;;;;;;;1.40;0.65;;;;;;;18.74;55.41;97167.78;4940156;28;20727;-78
2022/06/07 01:46:50;;;;;;;1.60;0.68;;;;;;;18.72;55.37;97160.16;4966600;28;20052;-77
2022/06/07 01:49:16;;;;;;;1.27;0.57;;;;;;;18.66;55.95;97161.34;4953513;28;20774;-77
2022/06/07 01:51:42;;;;;;;0.80;0.70;;;;;;;18.68;56.30;97160.00;4954270;28;20032;-77
2022/06/07 01:54:08;;;;;;;1.77;0.90;;;;;;;18.68;55.93;97157.34;4954509;28;20036;-77
2022/06/07 01:56:35;;;;;;;0.98;0.57;;;;;;;18.73;55.83;97159.09;4954293;28;20021;-77
2022/06/07 01:59:00;;;;;;;1.75;0.45;;;;;;;18.70;56.15;97157.06;4951549;28;20040;-76
2022/06/07 02:01:25;;;;;;;1.45;0.70;;;;;;;18.62;56.27;97160.38;4954703;28;20020;-77
2022/06/07 02:03:51;;;;;;;0.85;0.70;;;;;;;18.65;56.18;97157.94;4957690;28;20052;-77
2022/06/07 02:06:16;;;;;;;2.00;0.60;;;;;;;18.68;56.16;97156.56;4959492;28;20155;-77
2022/06/07 02:08:42;;;;;;;0.90;0.60;;;;;;;18.65;56.12;97146.63;4955440;28;20322;-77
2022/06/07 02:11:20;;;;;;;0.60;0.45;;;;;;;18.56;56.27;97149.19;4973823;28;20045;-77
2022/06/07 02:13:46;;;;;;;1.88;0.60;;;;;;;18.65;56.34;97143.97;4973545;28;20044;-77
2022/06/07 02:16:12;;;;;;;0.70;0.60;;;;;;;18.66;55.90;97143.69;4954743;28;20036;-77
2022/06/07 02:18:38;;;;;;;1.35;0.60;;;;;;;18.64;56.29;97139.78;4971056;28;20029;-77
2022/06/07 02:21:05;;;;;;;1.88;0.65;;;;;;;18.62;55.98;97134.03;4977238;28;20764;-77
2022/06/07 02:23:34;;;;;;;1.02;0.55;;;;;;;18.62;55.96;97137.44;4971233;28;20070;-77
2022/06/07 02:26:04;;;;;;;0.82;0.38;;;;;;;18.57;56.31;97128.84;4972697;28;20013;-77
2022/06/07 02:28:33;;;;;;;2.47;0.75;;;;;;;18.55;56.35;97136.28;4942772;28;20086;-77
2022/06/07 02:30:59;;;;;;;1.55;0.60;;;;;;;18.62;56.22;97131.38;4956608;28;20060;-77
2022/06/07 02:33:26;;;;;;;1.08;0.52;;;;;;;18.55;56.28;97128.38;4973616;28;20722;-77
2022/06/07 02:35:52;;;;;;;1.55;0.60;;;;;;;18.52;56.21;97117.34;4974553;28;20013;-77
2022/06/07 02:38:19;;;;;;;1.67;0.70;;;;;;;18.51;56.26;97123.69;4973923;28;20029;-77
2022/06/07 02:40:45;;;;;;;1.60;0.50;;;;;;;18.44;56.44;97125.16;4957547;28;20086;-77
2022/06/07 02:43:11;;;;;;;0.63;0.50;;;;;;;18.39;56.89;97128.69;4975409;28;20087;-77
2022/06/07 02:45:37;;;;;;;1.50;0.60;;;;;;;18.40;56.70;97132.13;4953557;28;20264;-76
2022/06/07 02:48:03;;;;;;;0.82;0.60;;;;;;;18.34;57.17;97126.94;4955142;28;20031;-77
2022/06/07 02:50:29;;;;;;;0.80;0.65;;;;;;;18.21;57.40;97121.69;4972154;28;20029;-77
2022/06/07 02:52:55;;;;;;;0.80;0.60;;;;;;;18.19;57.10;97118.59;4955819;28;20024;-76
2022/06/07 02:55:21;;;;;;;1.10;0.60;;;;;;;18.18;57.30;97122.28;4943462;28;20021;-77
2022/06/07 02:57:46;;;;;;;0.80;0.57;;;;;;;18.15;57.57;97126.31;4957966;28;20053;-77
2022/06/07 03:00:14;;;;;;;1.38;0.70;;;;;;;18.01;57.65;97126.31;4972837;28;20037;-77
2022/06/07 03:02:40;;;;;;;1.73;0.70;;;;;;;18.03;57.92;97132.06;4974149;28;20121;-77
2022/06/07 03:05:06;;;;;;;2.85;0.82;;;;;;;18.04;57.73;97128.34;4955814;28;20927;-77
2022/06/07 03:07:32;;;;;;;1.05;0.65;;;;;;;18.01;58.07;97122.88;4972144;28;20031;-77
2022/06/07 03:09:58;;;;;;;1.25;0.80;;;;;;;17.91;58.09;97118.59;4972117;28;20028;-77
2022/06/07 03:12:23;;;;;;;1.48;1.00;;;;;;;17.84;58.34;97126.06;4955465;28;20056;-77
2022/06/07 03:14:48;;;;;;;3.08;0.70;;;;;;;17.82;58.27;97125.56;4954927;28;20021;-77
2022/06/07 03:17:14;;;;;;;1.38;0.73;;;;;;;17.78;58.56;97125.38;4972976;28;20017;-77
2022/06/07 03:19:40;;;;;;;1.85;0.73;;;;;;;17.74;58.48;97121.78;4974121;28;20021;-77
2022/06/07 03:22:07;;;;;;;0.80;0.70;;;;;;;17.70;58.70;97121.59;4978938;28;20075;-77
2022/06/07 03:24:34;;;;;;;0.93;0.80;;;;;;;17.65;58.82;97126.16;4957644;28;20730;-77
2022/06/07 03:26:59;;;;;;;1.45;0.60;;;;;;;17.60;58.95;97125.19;4959404;28;20104;-77
2022/06/07 03:29:24;;;;;;;2.38;1.00;;;;;;;17.54;58.85;97125.56;4947419;28;20738;-77
2022/06/07 03:31:50;;;;;;;1.45;0.63;;;;;;;17.53;59.14;97127.41;4974964;28;20024;-77
2022/06/07 03:34:16;;;;;;;1.42;0.77;;;;;;;17.46;59.28;97123.59;4956562;28;20028;-77
2022/06/07 03:36:41;;;;;;;2.58;1.27;;;;;;;17.45;59.34;97133.34;4950580;28;20113;-77
2022/06/07 03:39:08;;;;;;;0.80;0.80;;;;;;;17.39;59.57;97130.03;4954662;28;20052;-77
2022/06/07 03:41:34;;;;;;;0.80;0.65;;;;;;;17.33;59.77;97130.41;4969753;28;20037;-76
2022/06/07 03:44:00;;;;;;;1.23;0.90;;;;;;;17.34;60.13;97131.94;4971238;28;20043;-77
2022/06/07 03:46:27;;;;;;;1.45;0.77;;;;;;;17.28;60.28;97133.88;4956823;28;20033;-77
2022/06/07 03:48:53;;;;;;;1.35;0.80;;;;;;;17.34;60.46;97135.38;4971302;28;20579;-77
2022/06/07 03:51:21;;;;;;;1.20;0.63;;;;;;;17.35;60.43;97136.91;4954858;28;20028;-77
2022/06/07 03:53:47;;;;;;;1.90;0.90;;;;;;;17.40;60.43;97142.09;4955164;28;20078;-77
2022/06/07 03:56:13;;;;;;;1.10;0.80;;;;;;;17.47;60.32;97138.31;4954552;28;20025;-77
2022/06/07 03:58:38;;;;;;;2.22;1.10;;;;;;;17.42;60.86;97139.19;4958115;28;20309;-77
2022/06/07 04:01:05;;;;;;;1.17;0.85;;;;;;;17.46;60.26;97140.19;4975067;28;20624;-77
2022/06/07 04:03:30;;;;;;;1.65;0.90;;;;;;;17.37;60.27;97136.63;4957743;28;20029;-77
2022/06/07 04:05:56;;;;;;;1.63;0.93;;;;;;;17.42;60.27;97142.59;4959230;28;20698;-77
2022/06/07 04:08:22;;;;;;;1.15;1.08;;;;;;;17.40;60.28;97138.69;4958515;28;20112;-77
2022/06/07 04:10:52;;;;;;;1.00;0.90;;;;;;;17.27;60.36;97136.81;4975213;28;20052;-77
2022/06/07 04:13:20;;;;;;;1.75;1.20;;;;;;;17.32;60.38;97137.50;4965952;28;20598;-77
2022/06/07 04:15:45;;;;;;;1.10;0.93;;;;;;;17.31;60.64;97138.59;4958954;28;20120;-77
2022/06/07 04:18:11;;;;;;;1.65;0.80;;;;;;;17.29;60.57;97140.72;4958471;28;20091;-77
2022/06/07 04:20:37;;;;;;;1.08;0.98;;;;;;;17.27;60.78;97142.84;4958091;28;20124;-77
2022/06/07 04:23:04;;;;;;;2.67;0.80;;;;;;;17.29;60.79;97153.88;4942352;28;20819;-77
2022/06/07 04:25:30;;;;;;;1.55;1.00;;;;;;;17.40;60.82;97151.84;4959191;28;20087;-77
2022/06/07 04:27:55;;;;;;;2.55;1.00;;;;;;;17.43;60.85;97151.28;4974115;28;20064;-77
2022/06/07 04:30:21;;;;;;;3.17;0.90;;;;;;;17.50;60.93;97149.06;4974316;28;20043;-77
2022/06/07 04:32:47;;;;;;;0.73;0.70;;;;;;;17.63;60.48;97152.00;4958850;28;20032;-77
2022/06/07 04:35:18;;;;;;;1.92;0.90;;;;;;;17.61;60.32;97152.28;4956368;28;20087;-77
2022/06/07 04:37:47;;;;;;;1.83;0.98;;;;;;;17.73;59.99;97151.81;4972960;28;20873;-77
2022/06/07 04:40:13;;;;;;;1.70;0.90;;;;;;;17.86;60.20;97155.56;4940570;28;20040;-77
2022/06/07 04:42:39;;;;;;;1.17;1.08;;;;;;;17.85;59.90;97152.13;4975749;28;20045;-77
2022/06/07 04:45:06;;;;;;;1.73;1.23;;;;;;;17.96;59.96;97158.03;4958036;28;20033;-77
2022/06/07 04:47:32;;;;;;;1.65;1.20;;;;;;;17.98;59.28;97149.81;4937474;28;20033;-77
2022/06/07 04:49:58;;;;;;;2.95;1.05;;;;;;;18.08;59.28;97150.41;4972552;28;20059;-77
2022/06/07 04:52:23;;;;;;;1.88;1.60;;;;;;;18.16;59.49;97156.84;4958025;28;20836;-77
2022/06/07 04:54:49;;;;;;;1.30;1.00;;;;;;;18.14;58.98;97156.34;4958281;28;20701;-76
2022/06/07 04:57:14;;;;;;;1.90;1.45;;;;;;;18.31;58.85;97161.03;4974547;28;20029;-77
2022/06/07 04:59:39;;;;;;;1.30;1.20;;;;;;;18.34;58.94;97171.00;4973458;28;20718;-77
2022/06/07 05:02:05;;;;;;;1.10;0.95;;;;;;;18.43;59.20;97163.94;4958218;28;20032;-77
2022/06/07 05:04:30;;;;;;;1.15;1.00;;;;;;;18.49;58.75;97168.03;4940696;28;20036;-77
2022/06/07 05:06:56;;;;;;;1.55;1.10;;;;;;;18.58;58.44;97167.34;4940725;28;20638;-77
2022/06/07 05:09:24;;;;;;;1.40;0.90;;;;;;;18.58;58.31;97175.25;4940219;28;20091;-77
2022/06/07 05:11:51;;;;;;;1.52;1.10;;;;;;;18.63;58.38;97180.41;4956676;28;20108;-77
2022/06/07 05:14:17;;;;;;;1.58;0.88;;;;;;;18.66;58.16;97177.16;4958209;28;20020;-77
2022/06/07 05:16:42;;;;;;;0.80;0.77;;;;;;;18.76;58.37;97170.91;4939255;28;20029;-77
2022/06/07 05:19:10;;;;;;;2.45;0.88;;;;;;;18.99;57.88;97182.31;4957182;28;20107;-77
2022/06/07 05:21:36;;;;;;;2.50;1.20;;;;;;;19.05;57.75;97178.47;4972913;28;20090;-77
2022/06/07 05:24:03;;;;;;;1.38;1.25;;;;;;;19.19;57.87;97183.69;4973040;28;20825;-77
2022/06/07 05:26:39;;;;;;;1.70;0.88;;;;;;;19.15;57.63;97178.22;4940791;28;20032;-77
2022/06/07 05:29:05;;;;;;;2.00;0.80;;;;;;;19.46;56.53;97180.91;4972824;28;20170;-77
2022/06/07 05:31:31;;;;;;;1.08;0.80;;;;;;;19.43;56.44;97188.66;4972745;28;20028;-77
2022/06/07 05:33:56;;;;;;;1.75;0.80;;;;;;;19.41;56.57;97193.47;4956051;28;20035;-77
2022/06/07 05:36:22;;;;;;;1.88;1.00;;;;;;;19.40;57.03;97191.91;4937128;28;20110;-77
2022/06/07 05:38:48;;;;;;;3.33;0.90;;;;;;;19.36;56.87;97196.22;4951884;28;20036;-77
2022/06/07 05:41:20;;;;;;;1.25;1.05;;;;;;;19.31;56.89;97199.75;4956407;28;20043;-77
2022/06/07 05:43:46;;;;;;;2.67;1.30;;;;;;;19.29;56.96;97196.66;4940342;28;20156;-77
2022/06/07 05:46:11;;;;;;;1.75;0.85;;;;;;;19.15;57.27;97196.69;4956257;28;20100;-76
2022/06/07 05:48:37;;;;;;;1.58;0.90;;;;;;;19.14;57.42;97194.34;4954865;28;20179;-77
2022/06/07 05:51:03;;;;;;;1.10;1.00;;;;;;;19.20;57.71;97193.94;4974324;28;20028;-76
2022/06/07 05:53:28;;;;;;;2.25;0.80;;;;;;;19.31;57.70;97193.69;4966198;28;20031;-76
2022/06/07 05:55:54;;;;;;;2.17;1.05;;;;;;;19.36;57.09;97190.94;4956326;28;20921;-77
2022/06/07 05:58:20;;;;;;;1.45;0.90;;;;;;;19.39;57.67;97190.34;4939146;28;20032;-77
2022/06/07 06:00:46;;;;;;;2.00;1.27;;;;;;;19.50;56.70;97189.03;4940190;28;20044;-76
2022/06/07 06:03:12;;;;;;;1.58;0.90;;;;;;;19.59;56.63;97194.38;4980000;28;20789;-77
2022/06/07 06:05:43;;;;;;;2.53;0.90;;;;;;;19.62;56.17;97197.19;4957084;28;20035;-77
2022/06/07 06:11:19;;;;;;;1.60;0.95;;;;;;;19.95;54.77;97191.59;4974041;28;20764;-77
2022/06/07 06:13:44;;;;;;;4.30;1.00;;;;;;;20.30;54.88;97191.72;4956612;28;20077;-77
2022/06/07 06:16:18;;;;;;;1.77;1.15;;;;;;;20.35;53.89;97188.94;4971713;28;20226;-77
2022/06/07 06:18:45;;;;;;;1.27;0.90;;;;;;;20.60;53.48;97189.31;4972686;28;20159;-77
2022/06/07 06:21:11;;;;;;;2.30;0.98;;;;;;;20.80;53.33;97195.13;4973130;28;20612;-77
2022/06/07 06:23:36;;;;;;;1.83;1.20;;;;;;;20.76;52.73;97190.44;4956328;28;20029;-77
2022/06/07 06:26:07;;;;;;;2.47;1.13;;;;;;;20.77;51.70;97188.59;4956011;28;20753;-77
2022/06/07 06:28:32;;;;;;;1.33;1.00;;;;;;;20.90;51.85;97187.63;4972460;28;20108;-77
2022/06/07 06:31:01;;;;;;;0.93;0.70;;;;;;;20.79;52.08;97198.88;4972629;28;20219;-77
2022/06/07 06:33:27;;;;;;;0.80;0.70;;;;;;;21.06;52.01;97195.91;4956585;28;20040;-77
2022/06/07 06:35:54;;;;;;;2.33;0.90;;;;;;;21.08;51.40;97191.06;4969208;28;20729;-77
2022/06/07 06:38:20;;;;;;;1.83;1.00;;;;;;;21.38;50.75;97185.91;4955178;28;20061;-77
2022/06/07 06:40:46;;;;;;;3.17;1.40;;;;;;;21.64;50.89;97196.50;4969299;28;20752;-77
2022/06/07 06:43:13;;;;;;;0.93;0.75;;;;;;;21.85;50.26;97199.22;4955779;28;20747;-76
2022/06/07 06:45:42;;;;;;;2.72;1.15;;;;;;;21.99;48.78;97200.91;4940108;28;20029;-77
2022/06/07 06:48:09;;;;;;;1.58;0.75;;;;;;;22.01;48.89;97196.06;4953519;28;20036;-77
2022/06/07 06:50:35;;;;;;;1.73;0.90;;;;;;;21.80;50.27;97193.31;4972659;28;20724;-76
2022/06/07 06:53:01;;;;;;;2.17;1.00;;;;;;;21.88;48.85;97193.28;4953326;28;20051;-77
2022/06/07 06:55:26;;;;;;;2.35;1.25;;;;;;;21.96;48.75;97194.34;4972180;28;20032;-77
2022/06/07 06:57:52;;;;;;;2.45;1.10;;;;;;;22.15;49.25;97198.50;4971905;28;20116;-77
2022/06/07 07:00:17;;;;;;;1.73;0.93;;;;;;;22.37;48.54;97192.16;4956158;28;20076;-77
2022/06/07 07:02:44;;;;;;;1.50;0.70;;;;;;;22.56;48.43;97197.03;4954617;28;20060;-77
2022/06/07 07:05:13;;;;;;;3.00;0.88;;;;;;;22.70;47.86;97194.91;4956139;28;20775;-77
2022/06/07 07:07:38;;;;;;;1.45;0.90;;;;;;;22.79;48.14;97193.00;4956044;28;20801;-77
2022/06/07 07:10:05;;;;;;;1.88;1.10;;;;;;;23.03;47.66;97196.09;4939190;28;20108;-77
2022/06/07 07:12:32;;;;;;;1.55;0.60;;;;;;;23.38;46.92;97200.03;4956229;28;20035;-77
2022/06/07 07:14:58;;;;;;;0.75;0.75;;;;;;;23.38;46.36;97204.56;4972097;28;20100;-77
2022/06/07 07:17:23;;;;;;;3.38;1.25;;;;;;;23.48;46.56;97195.41;4971430;28;20043;-77
2022/06/07 07:19:49;;;;;;;1.27;0.60;;;;;;;23.62;46.10;97198.53;4939816;28;20717;-77
2022/06/07 07:22:16;;;;;;;1.80;0.93;;;;;;;23.98;45.47;97206.94;4972082;28;20090;-77
2022/06/07 07:24:42;;;;;;;0.98;0.75;;;;;;;23.96;44.22;97199.28;4965368;28;20733;-77
2022/06/07 07:27:08;;;;;;;0.98;0.80;;;;;;;23.91;45.13;97194.19;4965011;28;20256;-77
2022/06/07 07:29:34;;;;;;;1.55;0.80;;;;;;;24.11;45.15;97195.97;4966129;28;20664;-76
2022/06/07 07:31:59;;;;;;;2.10;0.90;;;;;;;24.00;44.82;97202.84;4947524;28;20198;-77
2022/06/07 07:34:25;;;;;;;0.80;0.80;;;;;;;24.12;44.54;97197.50;4947807;28;20234;-77
2022/06/07 07:36:53;;;;;;;1.52;0.80;;;;;;;24.26;44.21;97202.50;4964037;28;20292;-77
2022/06/07 07:39:19;;;;;;;1.50;0.70;;;;;;;24.45;43.63;97201.16;4963908;28;20649;-77
2022/06/07 07:41:46;;;;;;;1.15;1.00;;;;;;;24.33;43.98;97199.28;4964192;28;20411;-77
2022/06/07 07:44:13;;;;;;;1.08;0.73;;;;;;;24.68;44.73;97201.50;4947446;28;20309;-76
2022/06/07 07:46:40;;;;;;;1.27;0.80;;;;;;;24.58;43.54;97193.97;4947261;28;20194;-76
2022/06/07 07:49:07;;;;;;;1.10;0.73;;;;;;;24.93;43.04;97206.75;4946918;28;20160;-77
2022/06/07 07:51:37;;;;;;;1.27;0.77;;;;;;;24.63;43.54;97199.84;4931417;28;20752;-76
2022/06/07 07:54:05;;;;;;;1.65;0.70;;;;;;;24.80;44.23;97201.47;4947459;28;20245;-76
2022/06/07 07:56:31;;;;;;;1.17;0.90;;;;;;;24.70;43.00;97188.63;4947295;28;20227;-76
2022/06/07 07:58:57;;;;;;;1.08;0.85;;;;;;;25.26;42.30;97185.25;4963626;28;20172;-77
2022/06/07 08:01:25;;;;;;;1.00;0.90;;;;;;;25.15;41.51;97181.50;4947320;28;20279;-76
2022/06/07 08:03:52;;;;;;;1.65;0.90;;;;;;;25.41;41.17;97186.38;4947788;28;20221;-76
2022/06/07 08:06:20;;;;;;;1.70;0.80;;;;;;;25.34;41.78;97176.31;4947489;28;20353;-76
2022/06/07 08:08:49;;;;;;;1.23;0.80;;;;;;;25.50;40.96;97188.88;4947708;28;20570;-76
2022/06/07 08:11:20;;;;;;;1.70;0.80;;;;;;;25.31;40.74;97184.22;4953885;28;20214;-77
2022/06/07 08:13:45;;;;;;;1.27;0.70;;;;;;;25.48;41.75;97188.47;4947560;28;20725;-76
2022/06/07 08:16:11;;;;;;;0.98;0.77;;;;;;;25.34;42.65;97183.53;4947447;28;20256;-76
2022/06/07 08:18:37;;;;;;;0.60;0.60;;;;;;;25.42;39.53;97186.06;4947006;28;20321;-76
2022/06/07 08:21:06;;;;;;;1.15;0.80;;;;;;;25.03;41.22;97179.66;4947166;28;20317;-77
2022/06/07 08:23:32;;;;;;;1.60;0.68;;;;;;;25.13;42.78;97184.50;4930943;28;20237;-76
2022/06/07 08:26:00;;;;;;;0.77;0.70;;;;;;;25.39;41.98;97180.63;4963385;28;20644;-76
2022/06/07 08:28:25;;;;;;;1.88;0.90;;;;;;;25.30;42.73;97180.78;4949794;28;20186;-76
2022/06/07 08:30:52;;;;;;;1.45;0.80;;;;;;;25.51;41.29;97182.47;4963615;28;20757;-76
2022/06/07 08:38:54;;;;;;;2.45;0.80;;;;;;;25.36;40.87;97170.66;4962200;28;20276;-76
2022/06/07 08:42:02;;;;;;;1.40;0.90;;;;;;;25.04;40.35;97170.56;4963432;28;20207;-76
2022/06/07 08:44:51;;;;;;;2.33;0.70;;;;;;;24.77;43.53;97177.41;4965881;28;20593;-76
2022/06/07 08:47:19;;;;;;;2.38;0.82;;;;;;;24.87;42.54;97171.59;4947925;28;20295;-76
2022/06/07 08:49:45;;;;;;;1.33;0.93;;;;;;;25.08;41.54;97166.09;4966254;28;20261;-76
2022/06/07 08:52:20;;;;;;;1.55;0.77;;;;;;;25.21;41.78;97156.94;4934102;28;20194;-75
2022/06/07 08:54:45;;;;;;;1.90;1.00;;;;;;;25.40;40.48;97160.88;4967073;28;20209;-76
2022/06/07 08:57:22;;;;;;;2.78;1.10;;;;;;;25.29;41.46;97159.81;4966887;28;20663;-76
2022/06/07 08:59:54;;;;;;;0.68;0.68;;;;;;;25.64;39.31;97159.94;4950035;28;20277;-76
2022/06/07 09:02:47;;;;;;;1.80;0.60;;;;;;;24.99;41.21;97157.47;4961923;28;20294;-75
2022/06/07 09:05:15;;;;;;;1.70;0.60;;;;;;;25.42;39.82;97164.72;4965208;28;20631;-76
2022/06/07 09:07:42;;;;;;;0.75;0.60;;;;;;;25.36;41.10;97154.66;4966007;28;20245;-76
2022/06/07 09:13:07;;;;;;;1.38;0.80;;;;;;;25.30;40.54;97156.03;4966875;28;20122;-76
2022/06/07 09:15:37;;;;;;;2.33;0.80;;;;;;;25.47;39.76;97139.72;4933246;28;20282;-75
2022/06/07 09:18:06;;;;;;;1.23;0.70;;;;;;;25.86;38.85;97147.91;4966077;28;20266;-75
2022/06/07 09:20:35;;;;;;;1.85;0.82;;;;;;;25.54;40.27;97149.78;4933458;28;20203;-76
2022/06/07 09:23:11;;;;;;;1.70;0.73;;;;;;;25.49;40.81;97142.81;4960126;28;20437;-76
2022/06/07 09:25:48;;;;;;;1.23;0.60;;;;;;;25.21;39.62;97154.25;4949685;28;20692;-76
2022/06/07 09:28:16;;;;;;;1.60;0.60;;;;;;;24.91;40.64;97145.84;4949759;28;20277;-76
2022/06/07 09:30:44;;;;;;;2.80;1.58;;;;;;;25.17;42.63;97142.75;4946269;28;20750;-75
2022/06/07 09:33:57;;;;;;;1.08;0.60;;;;;;;25.12;41.99;97150.97;4933309;28;20253;-76
2022/06/07 09:36:25;;;;;;;4.38;0.70;;;;;;;25.22;39.81;97144.38;4965290;28;20637;-76
2022/06/07 09:39:03;;;;;;;1.20;0.70;;;;;;;25.11;39.64;97146.75;4965491;28;20280;-76
2022/06/07 09:41:36;;;;;;;2.35;0.98;;;;;;;25.34;40.27;97143.56;4964868;28;20215;-76
2022/06/07 09:44:09;;;;;;;0.80;0.75;;;;;;;25.57;38.21;97141.88;4965689;28;20210;-75
2022/06/07 09:46:34;;;;;;;1.77;0.63;;;;;;;25.49;39.98;97142.03;4965507;28;20202;-76
2022/06/07 09:49:01;;;;;;;2.03;0.90;;;;;;;25.72;39.65;97139.53;4931381;28;20241;-75
2022/06/07 09:51:35;;;;;;;1.50;0.70;;;;;;;26.16;38.16;97134.88;4950487;28;20740;-75
2022/06/07 09:54:13;;;;;;;1.35;0.77;;;;;;;26.30;38.25;97133.66;4969589;28;20040;-76
2022/06/07 09:56:58;;;;;;;1.42;0.63;;;;;;;26.81;37.98;97132.81;4950038;28;20122;-76
2022/06/07 09:59:42;;;;;;;0.75;0.70;;;;;;;27.11;37.24;97127.66;4968531;28;20032;-76
2022/06/07 10:02:27;;;;;;;0.60;0.60;;;;;;;27.20;35.81;97132.78;4957320;28;20033;-75
2022/06/07 10:05:12;;;;;;;1.02;0.77;;;;;;;26.79;37.47;97127.06;4956823;28;20041;-76
2022/06/07 10:07:39;;;;;;;;;;;;;;;26.34;36.29;97129.94;4972940;28;20135;-76
2022/06/07 10:10:22;;;;;;;1.45;0.60;;;;;;;26.23;36.68;97120.16;4956093;28;19911;-76
2022/06/07 10:13:03;;;;;;;0.50;0.50;;;;;;;25.87;37.55;97122.75;4940340;28;20025;-76
2022/06/07 10:16:04;;;;;;;0.52;0.52;;;;;;;25.85;38.97;97121.56;4956010;28;20112;-76
2022/06/07 10:18:45;;;;;;;1.17;0.70;;;;;;;25.66;39.51;97122.28;4939730;28;20025;-76
2022/06/07 10:21:28;;;;;;;0.98;0.60;;;;;;;25.72;40.23;97124.34;4956182;28;20024;-75
2022/06/07 10:24:31;;;;;;;1.85;0.93;;;;;;;25.29;41.11;97119.81;4955926;28;20048;-76
2022/06/07 10:27:11;;;;;;;2.25;0.80;;;;;;;25.39;40.71;97116.66;4973410;28;20832;-75
2022/06/07 10:30:03;;;;;;;1.67;0.82;;;;;;;25.41;39.04;97112.53;4972249;28;20090;-76
2022/06/07 10:32:31;;;;;;;3.95;2.10;;;;;;;25.65;39.28;97113.47;4972105;28;20755;-75
2022/06/07 10:35:10;;;;;;;2.20;1.50;;;;;;;25.58;39.26;97114.09;4973560;28;20021;-75
2022/06/07 10:37:47;;;;;;;1.20;0.70;;;;;;;25.44;40.15;97111.06;4971723;28;20112;-76
2022/06/07 10:40:24;;;;;;;2.53;1.55;;;;;;;25.24;40.03;97110.16;4965313;28;20700;-75
2022/06/07 10:42:59;;;;;;;1.50;0.98;;;;;;;24.81;41.71;97112.50;4971927;28;20029;-76
2022/06/07 10:45:37;;;;;;;2.45;0.90;;;;;;;24.58;42.06;97114.88;4955862;28;20031;-75
2022/06/07 10:48:25;;;;;;;2.78;0.80;;;;;;;24.43;43.01;97118.22;4953287;28;20033;-76
2022/06/07 10:52:20;;;;;;;1.10;0.60;;;;;;;24.41;43.16;97107.13;4971422;28;20040;-76
2022/06/07 10:54:02;;;;;;;1.85;0.70;;;;;;;24.62;42.58;97107.75;4958360;28;20036;-75
2022/06/07 10:56:39;;;;;;;0.80;0.60;;;;;;;24.90;41.57;97106.22;4971536;28;20917;-76
2022/06/07 10:59:13;;;;;;;0.75;0.75;;;;;;;25.24;41.00;97099.50;4965746;28;20922;-76
2022/06/07 11:01:52;;;;;;;2.30;0.90;;;;;;;25.56;41.58;97108.31;4950372;28;20024;-76
2022/06/07 11:10:11;;;;;;;1.45;0.77;;;;;;;26.49;36.93;97087.50;4958420;28;20037;-75
2022/06/07 11:12:47;;;;;;;1.33;0.50;;;;;;;26.46;38.94;97090.88;4978240;28;20063;-76
2022/06/07 11:15:18;;;;;;;1.85;0.70;;;;;;;26.30;37.41;97089.06;4971911;28;20775;-76
2022/06/07 11:18:10;;;;;;;2.55;0.60;;;;;;;25.61;39.47;97093.97;4955176;28;20748;-76
2022/06/07 11:20:48;;;;;;;1.30;0.52;;;;;;;25.08;40.95;97096.81;4967105;28;20936;-75
2022/06/07 11:23:18;;;;;;;0.50;0.40;;;;;;;25.28;40.24;97089.75;4971903;28;20029;-76
2022/06/07 11:25:58;;;;;;;3.10;0.50;;;;;;;24.99;41.66;97086.31;4955599;28;20056;-76
2022/06/07 11:28:26;;;;;;;1.10;0.55;;;;;;;25.03;42.65;97078.41;4971614;28;20147;-75
2022/06/07 11:30:53;;;;;;;0.70;0.70;;;;;;;25.09;41.68;97079.72;4939157;28;20040;-76
2022/06/07 11:33:42;;;;;;;0.80;0.70;;;;;;;25.23;41.42;97081.97;4971060;28;20100;-76
2022/06/07 11:36:25;;;;;;;1.75;0.75;;;;;;;25.25;41.60;97077.06;4969174;28;20118;-76
2022/06/07 11:38:57;;;;;;;1.98;0.68;;;;;;;25.35;40.92;97078.50;4970431;28;20067;-76
2022/06/07 11:41:37;;;;;;;0.50;0.50;;;;;;;25.23;40.19;97077.41;4971025;28;20029;-76
2022/06/07 11:44:10;;;;;;;2.08;0.40;;;;;;;25.14;41.57;97074.16;4957377;28;20136;-76
2022/06/07 11:46:35;;;;;;;1.20;0.47;;;;;;;25.52;42.34;97064.81;4989107;28;20424;-75
2022/06/07 11:49:19;;;;;;;0.98;0.47;;;;;;;25.71;42.55;97068.69;4977963;28;20032;-75
2022/06/07 11:52:00;;;;;;;0.55;0.40;;;;;;;25.87;38.06;97061.41;4968412;28;20060;-76
2022/06/07 11:54:43;;;;;;;0.50;0.50;;;;;;;25.85;38.49;97058.31;4971732;28;20059;-75
2022/06/07 11:57:36;;;;;;;0.90;0.57;;;;;;;25.65;40.08;97059.38;4971252;28;20805;-76
2022/06/07 12:00:03;;;;;;;0.43;0.43;;;;;;;25.75;40.57;97059.63;4968356;28;20826;-75
2022/06/07 12:02:37;;;;;;;0.60;0.47;;;;;;;25.88;38.93;97060.28;4954562;28;20035;-75
2022/06/07 12:05:29;;;;;;;0.82;0.50;;;;;;;25.83;41.00;97049.91;4971253;28;20027;-76
2022/06/07 12:08:18;;;;;;;0.60;0.43;;;;;;;25.89;37.74;97053.84;4954490;28;20032;-76
2022/06/07 12:11:20;;;;;;;0.85;0.52;;;;;;;25.81;39.44;97054.81;4964790;28;20111;-76